Time;durP1;ratioP1;P1;durP2;ratioP2;P2;SDS_P1;SDS_P2;PMS_P1;PMS_P2;Temp;Humidity;BMP_temperature;BMP_pressure;BME280_temperature;BME280_humidity;BME280_pressure;Samples;Min_cycle;Max_cycle;Signal;HPM_P1;HPM_P2
2023/04/19 00:01:11;;;;;;;2.40;1.40;;;15.20;81.70;;;;;;5006857;28;20526;-77
2023/04/19 00:03:40;;;;;;;1.83;1.00;;;15.20;81.80;;;;;;5003112;28;20236;-76
2023/04/19 00:06:09;;;;;;;3.90;1.80;;;15.20;81.80;;;;;;5001198;28;20202;-76
2023/04/19 00:08:38;;;;;;;5.70;1.70;;;15.20;81.80;;;;;;5009684;28;20889;-76
2023/04/19 00:11:06;;;;;;;2.17;1.17;;;15.20;81.80;;;;;;5022885;28;20204;-76
2023/04/19 00:13:36;;;;;;;2.20;1.47;;;15.20;81.80;;;;;;5011067;28;20192;-77
2023/04/19 00:16:06;;;;;;;2.17;1.63;;;15.20;81.90;;;;;;5005080;28;20613;-76
2023/04/19 00:18:35;;;;;;;3.03;1.47;;;15.20;81.90;;;;;;5009558;28;20247;-76
2023/04/19 00:21:05;;;;;;;6.20;1.73;;;15.20;81.90;;;;;;4998201;28;20327;-76
2023/04/19 00:23:34;;;;;;;3.60;1.53;;;15.20;82.10;;;;;;5013184;28;20201;-76
2023/04/19 00:26:04;;;;;;;3.37;1.47;;;15.20;82.20;;;;;;5007814;28;20303;-75
2023/04/19 00:28:33;;;;;;;3.07;1.37;;;15.20;82.20;;;;;;5009215;28;20336;-75
2023/04/19 00:31:02;;;;;;;2.17;1.10;;;15.10;82.20;;;;;;5009305;28;20255;-76
2023/04/19 00:33:30;;;;;;;4.53;1.63;;;15.20;82.30;;;;;;5010622;28;20206;-75
2023/04/19 00:35:59;;;;;;;3.90;2.23;;;15.20;82.30;;;;;;5008274;28;20211;-76
2023/04/19 00:38:28;;;;;;;1.63;1.37;;;15.20;82.50;;;;;;5009558;28;20199;-75
2023/04/19 00:40:57;;;;;;;1.63;1.17;;;15.10;82.40;;;;;;5005688;28;20262;-76
2023/04/19 00:43:26;;;;;;;2.87;2.00;;;15.10;82.50;;;;;;5012298;28;20708;-75
2023/04/19 00:45:54;;;;;;;3.13;1.73;;;15.10;82.50;;;;;;5012302;28;20200;-76
2023/04/19 00:48:23;;;;;;;2.77;1.57;;;15.10;82.50;;;;;;5007556;28;20207;-75
2023/04/19 00:50:51;;;;;;;2.87;1.67;;;15.10;82.60;;;;;;5010425;28;20199;-76
2023/04/19 00:53:20;;;;;;;2.47;1.53;;;15.10;82.80;;;;;;5009491;28;20250;-75
2023/04/19 00:55:50;;;;;;;5.10;2.13;;;15.10;82.70;;;;;;5002322;28;20204;-75
2023/04/19 00:58:18;;;;;;;5.60;2.40;;;15.10;82.80;;;;;;5002818;28;20201;-76
2023/04/19 01:00:47;;;;;;;6.67;2.23;;;15.10;82.80;;;;;;5005768;28;20207;-75
2023/04/19 01:03:15;;;;;;;2.13;1.37;;;15.10;82.80;;;;;;5006070;28;20236;-76
2023/04/19 01:05:44;;;;;;;2.03;0.97;;;15.10;82.80;;;;;;5008509;28;20208;-75
2023/04/19 01:08:12;;;;;;;2.87;1.57;;;15.10;82.80;;;;;;5007523;28;20199;-75
2023/04/19 01:10:41;;;;;;;4.70;2.07;;;15.10;82.70;;;;;;5005937;28;20224;-75
2023/04/19 01:13:10;;;;;;;3.30;1.93;;;15.10;82.70;;;;;;5004582;28;20303;-75
2023/04/19 01:15:39;;;;;;;2.57;1.30;;;15.10;82.70;;;;;;5007579;28;20696;-75
2023/04/19 01:18:07;;;;;;;2.03;1.27;;;15.10;82.70;;;;;;5007735;28;20206;-77
2023/04/19 01:20:35;;;;;;;2.93;1.57;;;15.10;82.50;;;;;;5007763;28;20435;-77
2023/04/19 01:23:05;;;;;;;1.63;1.13;;;15.10;82.50;;;;;;5007951;28;20204;-76
2023/04/19 01:25:33;;;;;;;2.80;0.97;;;15.10;82.50;;;;;;5010403;28;20243;-76
2023/04/19 01:28:02;;;;;;;3.57;2.13;;;15.10;82.60;;;;;;5011036;28;20204;-77
2023/04/19 01:30:30;;;;;;;3.77;2.20;;;15.10;82.60;;;;;;5013369;28;20448;-76
2023/04/19 01:32:58;;;;;;;2.50;1.83;;;15.10;83.00;;;;;;5012620;28;20200;-77
2023/04/19 01:35:27;;;;;;;2.13;1.33;;;15.10;83.00;;;;;;5012334;28;20204;-76
2023/04/19 01:37:55;;;;;;;3.37;1.93;;;15.10;83.00;;;;;;5012382;28;20199;-76
2023/04/19 01:40:26;;;;;;;8.17;1.50;;;15.10;82.80;;;;;;5011267;28;20270;-76
2023/04/19 01:42:54;;;;;;;2.70;1.50;;;15.10;82.80;;;;;;5012111;28;20242;-77
2023/04/19 01:45:23;;;;;;;7.80;1.43;;;15.10;82.80;;;;;;5010200;28;20254;-77
2023/04/19 01:47:51;;;;;;;2.43;1.37;;;15.10;82.70;;;;;;5012795;28;20731;-76
2023/04/19 01:50:20;;;;;;;3.80;1.87;;;15.10;82.80;;;;;;5011748;28;20220;-76
2023/04/19 01:52:48;;;;;;;4.90;1.80;;;15.10;82.70;;;;;;5012760;28;20635;-77
2023/04/19 01:55:17;;;;;;;5.83;2.23;;;15.10;82.80;;;;;;5013762;28;20200;-76
2023/04/19 01:57:46;;;;;;;3.73;1.70;;;15.00;82.80;;;;;;5011055;28;20204;-76
2023/04/19 02:00:16;;;;;;;8.47;2.17;;;15.10;82.90;;;;;;5009644;28;20650;-77
2023/04/19 02:02:45;;;;;;;2.73;1.73;;;15.00;82.90;;;;;;5011086;28;20228;-76
2023/04/19 02:05:13;;;;;;;4.83;1.73;;;15.00;82.90;;;;;;5012651;28;20581;-77
2023/04/19 02:07:43;;;;;;;3.63;1.67;;;15.00;83.20;;;;;;5012976;28;20200;-77
2023/04/19 02:10:12;;;;;;;3.13;1.60;;;15.00;83.40;;;;;;5013729;28;20232;-77
2023/04/19 02:12:41;;;;;;;4.07;2.73;;;15.00;83.40;;;;;;5016212;28;20196;-76
2023/04/19 02:15:11;;;;;;;2.30;1.43;;;14.90;83.50;;;;;;5017057;28;20536;-77
2023/04/19 02:17:40;;;;;;;3.77;1.87;;;14.90;83.60;;;;;;5009106;28;20661;-76
2023/04/19 02:20:09;;;;;;;6.47;1.73;;;14.90;83.60;;;;;;5012479;28;20193;-77
2023/04/19 02:22:38;;;;;;;5.03;1.93;;;14.90;83.70;;;;;;5012363;28;20204;-76
2023/04/19 02:25:07;;;;;;;2.13;1.70;;;14.80;83.80;;;;;;5013974;28;20201;-76
2023/04/19 02:27:36;;;;;;;4.77;1.93;;;14.80;84.00;;;;;;5009733;28;20211;-76
2023/04/19 02:30:05;;;;;;;4.63;2.03;;;14.80;83.90;;;;;;5009655;28;20267;-76
2023/04/19 02:32:35;;;;;;;5.27;2.57;;;14.80;84.00;;;;;;5010131;28;20200;-76
2023/04/19 02:35:04;;;;;;;3.37;2.03;;;14.80;84.00;;;;;;5010550;28;20196;-76
2023/04/19 02:37:32;;;;;;;4.87;2.57;;;14.80;84.00;;;;;;5005796;28;20251;-76
2023/04/19 02:40:00;;;;;;;3.53;1.93;;;14.80;84.20;;;;;;5010727;28;20224;-76
2023/04/19 02:42:29;;;;;;;3.13;1.57;;;14.80;84.30;;;;;;5009773;28;20200;-76
2023/04/19 02:44:57;;;;;;;7.47;1.70;;;14.80;84.20;;;;;;5012720;28;20259;-76
2023/04/19 02:47:25;;;;;;;3.13;1.50;;;14.80;84.40;;;;;;5004464;28;20208;-76
2023/04/19 02:49:55;;;;;;;2.60;1.40;;;14.70;84.40;;;;;;5010584;28;20262;-76
2023/04/19 02:52:24;;;;;;;4.80;2.10;;;14.70;84.40;;;;;;5012474;28;20200;-76
2023/04/19 02:54:52;;;;;;;5.47;1.73;;;14.70;84.60;;;;;;5012850;28;20595;-77
2023/04/19 02:57:20;;;;;;;6.37;1.60;;;14.70;84.60;;;;;;5014798;28;20279;-77
2023/04/19 02:59:49;;;;;;;3.20;1.60;;;14.70;84.70;;;;;;5005093;28;20200;-76
2023/04/19 03:02:17;;;;;;;2.53;1.50;;;14.70;84.80;;;;;;5010475;28;20289;-77
2023/04/19 03:04:46;;;;;;;2.43;1.63;;;14.70;84.80;;;;;;5028282;28;20298;-76
2023/04/19 03:07:16;;;;;;;2.17;1.53;;;14.60;84.90;;;;;;5031985;28;20687;-76
2023/04/19 03:09:44;;;;;;;8.10;2.60;;;14.60;84.90;;;;;;5024159;28;20204;-77
2023/04/19 03:12:12;;;;;;;3.57;2.00;;;14.60;85.00;;;;;;5021680;28;20199;-77
2023/04/19 03:14:41;;;;;;;3.30;1.67;;;14.60;85.10;;;;;;5023824;28;20199;-77
2023/04/19 03:17:09;;;;;;;3.37;1.60;;;14.60;85.10;;;;;;5026088;28;20248;-77
2023/04/19 03:19:38;;;;;;;1.57;1.23;;;14.60;85.10;;;;;;5025324;28;20196;-76
2023/04/19 03:22:06;;;;;;;7.00;2.63;;;14.60;85.10;;;;;;5024247;28;20200;-77
2023/04/19 03:24:36;;;;;;;3.63;1.70;;;14.60;85.10;;;;;;5022682;28;20196;-76
2023/04/19 03:27:05;;;;;;;3.57;1.53;;;14.60;85.20;;;;;;5025207;28;20204;-77
2023/04/19 03:29:33;;;;;;;2.47;1.40;;;14.60;85.30;;;;;;5027499;28;20258;-76
2023/04/19 03:32:02;;;;;;;2.87;1.53;;;14.50;85.20;;;;;;5030558;28;20307;-76
2023/04/19 03:34:30;;;;;;;2.63;1.40;;;14.60;85.30;;;;;;5028933;28;20207;-76
2023/04/19 03:36:59;;;;;;;1.90;1.17;;;14.60;85.20;;;;;;5028865;28;20199;-77
2023/04/19 03:39:27;;;;;;;3.40;1.60;;;14.60;85.30;;;;;;5028648;28;20929;-77
2023/04/19 03:41:57;;;;;;;3.97;1.40;;;14.60;85.30;;;;;;5031317;28;20246;-76
2023/04/19 03:44:25;;;;;;;5.50;2.63;;;14.60;85.30;;;;;;5031876;28;20196;-77
2023/04/19 03:46:53;;;;;;;1.63;0.97;;;14.60;85.30;;;;;;5023893;28;20557;-76
2023/04/19 03:49:22;;;;;;;4.47;1.70;;;14.60;85.30;;;;;;5031046;28;20249;-76
2023/04/19 03:51:50;;;;;;;2.43;1.70;;;14.60;85.40;;;;;;5028095;28;20220;-77
2023/04/19 03:54:19;;;;;;;2.23;1.70;;;14.60;85.50;;;;;;5030346;28;20196;-78
2023/04/19 03:56:48;;;;;;;5.57;1.80;;;14.60;85.80;;;;;;5024961;28;20203;-77
2023/04/19 03:59:18;;;;;;;2.53;1.77;;;14.60;85.70;;;;;;5025685;28;20269;-77
2023/04/19 04:01:46;;;;;;;1.63;1.10;;;14.60;85.60;;;;;;5029254;28;20200;-77
2023/04/19 04:04:15;;;;;;;1.77;1.20;;;14.70;85.60;;;;;;5020491;28;20199;-77
2023/04/19 04:06:44;;;;;;;1.80;1.37;;;14.70;86.30;;;;;;5025337;28;20227;-78
2023/04/19 04:09:12;;;;;;;3.77;2.43;;;14.70;85.50;;;;;;5043479;28;20208;-76
2023/04/19 04:11:40;;;;;;;2.13;1.40;;;14.70;85.20;;;;;;5035911;28;20220;-78
2023/04/19 04:14:09;;;;;;;1.87;1.23;;;14.70;84.90;;;;;;5032059;28;20227;-78
2023/04/19 04:16:39;;;;;;;3.13;1.80;;;14.70;84.60;;;;;;5027601;28;20226;-77
2023/04/19 04:19:07;;;;;;;6.10;1.60;;;14.70;84.60;;;;;;5033425;28;20258;-77
2023/04/19 04:21:35;;;;;;;1.77;1.10;;;14.70;84.50;;;;;;5025295;28;20203;-77
2023/04/19 04:24:04;;;;;;;4.87;2.00;;;14.70;84.60;;;;;;5031799;28;20203;-77
2023/04/19 04:26:34;;;;;;;1.90;0.93;;;14.80;84.60;;;;;;5031285;28;20194;-77
2023/04/19 04:29:02;;;;;;;3.67;1.20;;;14.80;84.60;;;;;;5032348;28;20447;-76
2023/04/19 04:31:31;;;;;;;4.97;2.37;;;14.80;84.70;;;;;;5029398;28;20207;-77
2023/04/19 04:34:00;;;;;;;8.07;3.13;;;14.80;85.00;;;;;;5033466;28;20195;-76
2023/04/19 04:36:30;;;;;;;3.03;1.97;;;14.80;85.50;;;;;;5030773;28;20199;-76
2023/04/19 04:39:00;;;;;;;13.73;2.37;;;14.70;86.00;;;;;;5029114;28;20593;-76
2023/04/19 04:41:30;;;;;;;3.97;2.67;;;14.70;86.30;;;;;;5030536;28;20246;-77
2023/04/19 04:43:59;;;;;;;8.87;2.77;;;14.70;86.40;;;;;;5025127;28;20222;-77
2023/04/19 04:46:39;;;;;;;7.63;3.20;;;14.70;88.20;;;;;;5030606;28;20195;-76
2023/04/19 04:49:09;;;;;;;4.10;3.23;;;14.60;87.70;;;;;;5032452;28;20261;-77
2023/04/19 04:51:37;;;;;;;11.67;3.77;;;14.60;87.40;;;;;;5029620;28;20215;-76
2023/04/19 04:54:06;;;;;;;4.10;2.10;;;14.60;87.80;;;;;;5032228;28;20196;-75
2023/04/19 04:56:34;;;;;;;4.00;2.03;;;14.60;88.00;;;;;;5034972;28;20640;-77
2023/04/19 04:59:03;;;;;;;3.70;2.10;;;14.60;88.10;;;;;;5030374;28;20279;-77
2023/04/19 05:01:31;;;;;;;3.83;2.73;;;14.60;88.10;;;;;;5030776;28;20238;-79
2023/04/19 05:04:00;;;;;;;3.50;2.13;;;14.60;88.20;;;;;;5029002;28;20257;-79
2023/04/19 05:06:30;;;;;;;4.53;3.00;;;14.60;88.30;;;;;;5030687;28;20218;-78
2023/04/19 05:08:58;;;;;;;6.43;3.53;;;14.60;88.70;;;;;;5033967;28;20238;-79
2023/04/19 05:11:27;;;;;;;6.63;2.53;;;14.60;89.10;;;;;;5036883;28;20230;-80
2023/04/19 05:13:56;;;;;;;5.07;2.67;;;14.60;89.00;;;;;;5030954;28;20238;-79
2023/04/19 05:16:25;;;;;;;5.03;2.57;;;14.60;89.00;;;;;;5032476;28;20277;-78
2023/04/19 05:18:54;;;;;;;5.83;2.87;;;14.60;89.70;;;;;;5032140;28;20254;-79
2023/04/19 05:21:22;;;;;;;7.93;3.13;;;14.60;89.70;;;;;;5031845;28;20196;-79
2023/04/19 05:23:53;;;;;;;5.10;2.67;;;14.60;89.70;;;;;;5038160;28;20258;-79
2023/04/19 05:26:21;;;;;;;3.23;2.37;;;14.60;89.90;;;;;;5031670;28;20196;-80
2023/04/19 05:28:50;;;;;;;8.03;2.10;;;14.60;89.70;;;;;;5032251;28;20196;-78
2023/04/19 05:31:19;;;;;;;5.40;2.67;;;14.60;90.00;;;;;;5030950;28;20243;-78
2023/04/19 05:33:48;;;;;;;5.60;2.73;;;14.60;90.00;;;;;;5032222;28;20196;-77
2023/04/19 05:36:16;;;;;;;3.97;2.63;;;14.60;90.00;;;;;;5023274;28;20208;-78
2023/04/19 05:38:45;;;;;;;8.57;2.97;;;14.60;90.00;;;;;;5017279;28;20215;-78
2023/04/19 05:41:15;;;;;;;3.83;2.20;;;14.70;90.00;;;;;;5019594;28;20207;-79
2023/04/19 05:43:44;;;;;;;3.83;2.20;;;14.70;90.00;;;;;;5030544;28;20931;-79
2023/04/19 05:46:12;;;;;;;6.67;3.37;;;14.70;89.90;;;;;;5028404;28;20200;-77
2023/04/19 05:48:41;;;;;;;3.37;2.20;;;14.80;89.90;;;;;;5028465;28;20200;-77
2023/04/19 05:51:09;;;;;;;6.63;3.00;;;14.80;89.90;;;;;;5028159;28;20196;-79
2023/04/19 05:53:37;;;;;;;7.07;2.67;;;14.80;89.80;;;;;;5026034;28;20212;-78
2023/04/19 05:56:06;;;;;;;6.60;2.80;;;14.80;89.70;;;;;;5023387;28;20261;-79
2023/04/19 05:58:36;;;;;;;6.93;1.90;;;14.80;89.70;;;;;;5026609;28;20257;-78
2023/04/19 06:01:05;;;;;;;4.90;2.23;;;14.90;89.70;;;;;;5030020;28;20222;-78
2023/04/19 06:03:34;;;;;;;2.70;2.40;;;15.00;89.70;;;;;;5028522;28;20230;-78
2023/04/19 06:06:03;;;;;;;8.00;2.47;;;15.00;89.30;;;;;;5028871;28;20743;-77
2023/04/19 06:08:31;;;;;;;3.03;2.03;;;15.10;89.00;;;;;;5029234;28;20202;-77
2023/04/19 06:11:00;;;;;;;4.50;2.30;;;15.20;89.10;;;;;;5023078;28;20208;-77
2023/04/19 06:13:50;;;;;;;4.73;2.37;;;15.20;88.80;;;;;;5029829;28;20198;-78
2023/04/19 06:16:18;;;;;;;7.90;2.50;;;15.20;87.80;;;;;;5031947;28;20196;-78
2023/04/19 06:18:46;;;;;;;6.07;2.70;;;15.20;88.00;;;;;;5031341;28;20214;-78
2023/04/19 06:21:15;;;;;;;4.60;2.43;;;15.30;88.00;;;;;;5028427;28;20203;-77
2023/04/19 06:23:44;;;;;;;4.60;2.20;;;15.40;87.70;;;;;;5031254;28;20195;-76
2023/04/19 06:26:12;;;;;;;5.27;2.23;;;15.40;87.00;;;;;;5029256;28;20196;-78
2023/04/19 06:28:40;;;;;;;4.33;2.53;;;15.40;87.00;;;;;;5031951;28;20254;-78
2023/04/19 06:31:11;;;;;;;5.70;1.80;;;15.40;86.90;;;;;;5029232;28;20232;-76
2023/04/19 06:33:39;;;;;;;3.53;1.77;;;15.40;86.90;;;;;;5025417;28;20861;-77
2023/04/19 06:36:09;;;;;;;7.30;2.77;;;15.40;86.90;;;;;;5032373;28;20243;-77
2023/04/19 06:38:37;;;;;;;4.03;1.70;;;15.40;86.90;;;;;;5033732;28;20207;-76
2023/04/19 06:41:06;;;;;;;5.20;2.57;;;15.50;86.50;;;;;;5030899;28;20249;-76
2023/04/19 06:43:34;;;;;;;2.73;1.83;;;15.50;86.30;;;;;;5030422;28;20192;-78
2023/04/19 06:46:05;;;;;;;5.40;2.33;;;15.50;86.10;;;;;;5030039;28;20657;-77
2023/04/19 06:48:35;;;;;;;3.23;1.67;;;15.60;86.40;;;;;;5033682;28;20187;-77
2023/04/19 06:51:04;;;;;;;3.70;2.07;;;15.70;86.30;;;;;;5034095;28;20207;-75
2023/04/19 06:53:33;;;;;;;4.20;2.23;;;15.70;85.40;;;;;;5029863;28;20230;-76
2023/04/19 06:56:03;;;;;;;5.53;2.30;;;15.70;84.70;;;;;;5032215;28;20211;-76
2023/04/19 06:58:32;;;;;;;4.00;2.03;;;15.70;84.30;;;;;;5035457;28;20562;-75
2023/04/19 07:01:03;;;;;;;4.77;2.33;;;15.70;83.70;;;;;;5034666;28;20195;-77
2023/04/19 07:03:32;;;;;;;4.87;2.03;;;15.80;83.80;;;;;;5032519;28;20227;-77
2023/04/19 07:06:02;;;;;;;3.43;1.90;;;15.80;83.80;;;;;;5032551;28;20605;-78
2023/04/19 07:08:31;;;;;;;4.63;2.63;;;15.90;83.90;;;;;;5033852;28;20203;-77
2023/04/19 07:11:16;;;;;;;5.80;2.40;;;16.00;83.90;;;;;;5023800;28;20531;-80
2023/04/19 07:13:47;;;;;;;7.93;3.73;;;16.00;83.60;;;;;;5029432;28;20620;-78
2023/04/19 07:16:15;;;;;;;10.30;3.43;;;16.00;82.90;;;;;;5032097;28;20198;-79
2023/04/19 07:18:44;;;;;;;6.40;2.70;;;16.20;83.50;;;;;;5025696;28;20258;-78
2023/04/19 07:21:14;;;;;;;10.30;4.17;;;16.20;83.30;;;;;;5026701;28;20203;-78
2023/04/19 07:23:42;;;;;;;5.83;3.07;;;16.20;83.30;;;;;;5027827;28;20232;-77
2023/04/19 07:26:11;;;;;;;4.03;2.33;;;16.40;83.90;;;;;;5028594;28;20286;-76
2023/04/19 07:28:40;;;;;;;6.37;3.00;;;16.40;83.30;;;;;;5029715;28;20204;-79
2023/04/19 07:31:08;;;;;;;7.53;2.13;;;16.40;83.20;;;;;;5031729;28;20569;-78
2023/04/19 07:33:36;;;;;;;11.47;2.37;;;16.50;83.40;;;;;;5030748;28;20298;-76
2023/04/19 07:36:05;;;;;;;6.30;2.57;;;16.60;83.50;;;;;;5029190;28;20196;-77
2023/04/19 07:38:35;;;;;;;4.40;2.13;;;16.70;83.00;;;;;;5030581;28;20652;-78
2023/04/19 07:41:04;;;;;;;4.90;2.83;;;16.80;82.90;;;;;;5029902;28;20549;-78
2023/04/19 07:43:37;;;;;;;2.73;1.93;;;16.90;81.90;;;;;;5025494;28;20219;-78
2023/04/19 07:46:20;;;;;;;4.27;2.67;;;17.00;82.00;;;;;;5027554;28;20211;-79
2023/04/19 07:48:48;;;;;;;6.83;3.80;;;17.10;81.70;;;;;;5031742;28;20198;-77
2023/04/19 07:51:18;;;;;;;4.67;2.50;;;17.10;81.60;;;;;;5032563;28;20238;-78
2023/04/19 07:53:49;;;;;;;2.80;1.90;;;17.10;81.30;;;;;;5022911;28;20556;-80
2023/04/19 07:56:18;;;;;;;8.33;2.60;;;17.20;81.50;;;;;;5026288;28;20249;-77
2023/04/19 07:58:47;;;;;;;5.70;2.37;;;17.20;81.40;;;;;;5028323;28;20192;-76
2023/04/19 08:01:31;;;;;;;5.03;3.07;;;17.30;82.20;;;;;;5033882;28;20664;-80
2023/04/19 08:04:00;;;;;;;4.40;2.50;;;17.30;81.10;;;;;;5030140;28;20817;-75
2023/04/19 08:06:29;;;;;;;3.27;1.97;;;17.30;81.10;;;;;;5028029;28;20570;-80
2023/04/19 08:08:59;;;;;;;3.07;2.13;;;17.30;80.20;;;;;;5030408;28;20202;-77
2023/04/19 08:11:27;;;;;;;2.33;1.67;;;17.40;80.60;;;;;;5026199;28;20219;-78
2023/04/19 08:13:56;;;;;;;6.93;2.73;;;17.40;80.80;;;;;;5027217;28;20822;-77
2023/04/19 08:16:28;;;;;;;6.33;2.20;;;17.40;80.30;;;;;;5031439;28;20222;-80
2023/04/19 08:19:16;;;;;;;2.90;1.60;;;17.50;80.20;;;;;;5026028;28;20307;-76
2023/04/19 08:21:45;;;;;;;8.77;1.93;;;17.50;79.40;;;;;;5029946;28;20195;-80
2023/04/19 08:24:14;;;;;;;3.63;2.10;;;17.50;80.40;;;;;;5026825;28;20286;-76
2023/04/19 08:26:52;;;;;;;3.47;1.90;;;17.50;80.70;;;;;;5028579;28;20283;-77
2023/04/19 08:29:20;;;;;;;5.00;2.10;;;17.60;80.50;;;;;;5031123;28;20257;-77
2023/04/19 08:31:51;;;;;;;4.67;2.47;;;17.60;80.50;;;;;;5023683;28;20227;-76
2023/04/19 08:34:20;;;;;;;3.17;2.20;;;17.60;80.60;;;;;;5027712;28;20251;-76
2023/04/19 08:36:49;;;;;;;4.17;2.07;;;17.60;79.70;;;;;;5030073;28;20199;-77
2023/04/19 08:39:32;;;;;;;3.80;1.87;;;17.60;80.10;;;;;;5031282;28;20690;-79
2023/04/19 08:42:05;;;;;;;4.47;1.90;;;17.70;80.40;;;;;;5029656;28;20198;-78
2023/04/19 08:44:52;;;;;;;7.07;2.13;;;17.70;78.90;;;;;;5030827;28;20204;-78
2023/04/19 08:47:41;;;;;;;3.93;2.20;;;17.80;79.70;;;;;;5031749;28;20211;-77
2023/04/19 08:50:27;;;;;;;5.90;2.30;;;17.70;79.80;;;;;;5031120;28;20666;-77
2023/04/19 08:53:02;;;;;;;2.57;2.00;;;17.80;79.70;;;;;;5029543;28;20211;-76
2023/04/19 08:55:36;;;;;;;4.07;1.47;;;17.90;79.10;;;;;;5028562;28;20269;-80
2023/04/19 08:58:07;;;;;;;3.10;1.50;;;17.90;78.80;;;;;;5026487;28;20223;-79
2023/04/19 09:00:53;;;;;;;3.80;2.10;;;17.90;78.40;;;;;;5025855;28;20203;-77
2023/04/19 09:03:29;;;;;;;4.70;1.90;;;18.00;78.40;;;;;;5032061;28;20624;-79
2023/04/19 09:06:00;;;;;;;3.27;1.57;;;18.10;78.80;;;;;;5029747;28;20192;-78
2023/04/19 09:08:30;;;;;;;4.83;2.50;;;18.00;78.80;;;;;;5029198;28;20183;-78
2023/04/19 09:11:01;;;;;;;5.47;2.20;;;18.10;78.80;;;;;;5032755;28;20200;-78
2023/04/19 09:13:30;;;;;;;4.13;2.27;;;18.20;78.90;;;;;;5031118;28;20261;-78
2023/04/19 09:16:00;;;;;;;3.40;1.80;;;18.30;78.70;;;;;;5028379;28;20208;-77
2023/04/19 09:18:29;;;;;;;2.50;1.63;;;18.30;79.30;;;;;;5031045;28;20257;-76
2023/04/19 09:21:01;;;;;;;6.30;2.50;;;18.30;79.00;;;;;;5029780;28;20298;-78
2023/04/19 09:23:29;;;;;;;1.87;1.23;;;18.40;79.20;;;;;;5027618;28;20192;-77
2023/04/19 09:26:03;;;;;;;6.47;2.03;;;18.50;79.20;;;;;;5029088;28;20204;-79
2023/04/19 09:28:34;;;;;;;3.10;2.03;;;18.50;78.40;;;;;;5027999;28;20601;-78
2023/04/19 09:31:12;;;;;;;3.80;1.80;;;18.50;77.80;;;;;;5030538;28;20250;-77
2023/04/19 09:34:14;;;;;;;3.93;2.20;;;18.60;78.10;;;;;;5031615;28;20302;-76
2023/04/19 09:36:42;;;;;;;1.93;1.50;;;18.70;77.40;;;;;;5031362;28;20661;-77
2023/04/19 09:39:11;;;;;;;2.87;1.67;;;18.70;75.90;;;;;;5027774;28;20203;-76
2023/04/19 09:41:52;;;;;;;1.30;1.00;;;18.70;75.90;;;;;;5028271;28;20196;-78
2023/04/19 09:44:23;;;;;;;9.70;2.13;;;18.90;76.40;;;;;;5028375;28;20202;-76
2023/04/19 09:46:54;;;;;;;2.67;1.40;;;19.00;76.10;;;;;;5033644;28;20204;-76
2023/04/19 09:49:24;;;;;;;4.67;2.03;;;19.10;75.60;;;;;;5034399;28;20720;-78
2023/04/19 09:52:14;;;;;;;3.60;1.60;;;19.10;75.50;;;;;;5032880;28;20567;-75
2023/04/19 09:54:44;;;;;;;4.97;1.60;;;19.20;75.40;;;;;;5035434;28;20208;-77
2023/04/19 09:57:15;;;;;;;1.80;1.40;;;19.20;75.20;;;;;;5037015;28;20206;-77
2023/04/19 09:59:43;;;;;;;5.43;1.63;;;19.20;74.70;;;;;;5025034;28;20604;-77
2023/04/19 10:02:14;;;;;;;2.73;1.37;;;19.20;74.40;;;;;;5031652;28;20273;-77
2023/04/19 10:04:43;;;;;;;5.67;1.60;;;19.20;74.70;;;;;;5030118;28;21200;-77
2023/04/19 10:07:17;;;;;;;1.93;1.47;;;19.20;72.70;;;;;;5028574;28;20226;-78
2023/04/19 10:09:59;;;;;;;3.97;1.40;;;19.20;73.10;;;;;;5029830;28;20188;-78
2023/04/19 10:12:33;;;;;;;2.37;1.60;;;19.30;73.50;;;;;;5034021;28;20253;-79
2023/04/19 10:15:06;;;;;;;5.53;1.93;;;19.30;73.20;;;;;;5033838;28;20204;-77
2023/04/19 10:17:35;;;;;;;2.13;1.33;;;19.20;73.30;;;;;;5033889;28;20675;-76
2023/04/19 10:20:07;;;;;;;2.57;1.37;;;19.30;73.80;;;;;;5030529;28;20200;-77
2023/04/19 10:22:37;;;;;;;2.23;1.30;;;19.30;74.20;;;;;;5032878;28;20660;-77
2023/04/19 10:25:11;;;;;;;2.77;1.77;;;19.30;74.30;;;;;;5034686;28;20198;-78
2023/04/19 10:27:44;;;;;;;3.20;1.27;;;19.30;73.90;;;;;;5034601;28;20187;-80
2023/04/19 10:30:20;;;;;;;3.07;1.97;;;19.30;72.50;;;;;;5032217;28;20279;-78
2023/04/19 10:32:54;;;;;;;3.47;1.67;;;19.30;72.70;;;;;;5027180;28;20230;-78
2023/04/19 10:35:27;;;;;;;4.23;2.37;;;19.40;73.20;;;;;;5029126;28;20208;-78
2023/04/19 10:38:05;;;;;;;6.63;1.93;;;19.40;73.10;;;;;;5034163;28;20199;-81
2023/04/19 10:41:03;;;;;;;4.13;1.63;;;19.40;73.00;;;;;;5037943;28;20207;-78
2023/04/19 10:43:34;;;;;;;3.60;2.07;;;19.40;73.70;;;;;;5037173;28;20214;-76
2023/04/19 10:46:07;;;;;;;2.23;1.43;;;19.30;74.20;;;;;;5027755;28;20249;-78
2023/04/19 10:48:38;;;;;;;8.60;2.33;;;19.40;74.10;;;;;;5031979;28;20243;-77
2023/04/19 10:51:14;;;;;;;2.97;1.87;;;19.30;72.50;;;;;;5030213;28;20203;-77
2023/04/19 10:53:53;;;;;;;3.53;1.43;;;19.30;72.90;;;;;;5033452;28;20229;-76
2023/04/19 10:56:40;;;;;;;3.33;1.73;;;19.30;72.50;;;;;;5027473;28;20196;-76
2023/04/19 10:59:22;;;;;;;4.83;2.20;;;19.30;72.70;;;;;;5025615;28;20199;-77
2023/04/19 11:01:55;;;;;;;4.17;1.73;;;19.30;73.50;;;;;;5027039;28;20203;-77
2023/04/19 11:04:45;;;;;;;3.80;1.50;;;19.30;74.10;;;;;;5032276;28;20196;-76
2023/04/19 11:07:14;;;;;;;2.63;1.43;;;19.30;74.40;;;;;;5035213;28;20199;-77
2023/04/19 11:09:46;;;;;;;10.40;1.70;;;19.40;74.70;;;;;;5030546;28;20196;-78
2023/04/19 11:12:16;;;;;;;3.37;1.83;;;19.40;74.10;;;;;;5029356;28;20196;-80
2023/04/19 11:14:47;;;;;;;1.80;1.30;;;19.30;72.50;;;;;;5031373;28;20208;-78
2023/04/19 11:17:17;;;;;;;3.93;1.77;;;19.30;72.90;;;;;;5031038;28;20196;-77
2023/04/19 11:19:52;;;;;;;3.53;1.40;;;19.30;72.50;;;;;;5035106;28;20203;-78
2023/04/19 11:22:26;;;;;;;8.00;1.97;;;19.20;73.10;;;;;;5032687;28;20203;-79
2023/04/19 11:24:54;;;;;;;3.53;1.43;;;19.30;74.10;;;;;;5033783;28;20253;-76
2023/04/19 11:27:22;;;;;;;4.60;1.80;;;19.10;74.20;;;;;;5032302;28;20203;-83
2023/04/19 11:29:52;;;;;;;6.97;2.13;;;19.10;74.00;;;;;;5037738;28;20212;-78
2023/04/19 11:32:22;;;;;;;9.03;2.13;;;19.00;73.80;;;;;;5034766;28;20196;-77
2023/04/19 11:34:50;;;;;;;7.00;1.83;;;19.00;74.10;;;;;;5034684;28;20230;-79
2023/04/19 11:37:19;;;;;;;5.50;2.07;;;19.00;74.70;;;;;;5035289;28;20215;-77
2023/04/19 11:39:47;;;;;;;2.70;1.30;;;18.90;74.80;;;;;;5031921;28;20198;-76
2023/04/19 11:42:19;;;;;;;2.00;1.40;;;18.90;75.10;;;;;;5026107;28;20196;-79
2023/04/19 11:44:53;;;;;;;8.87;1.30;;;18.80;75.40;;;;;;5031331;28;20195;-77
2023/04/19 11:47:21;;;;;;;1.83;1.10;;;18.80;75.10;;;;;;5028405;28;20200;-77
2023/04/19 11:49:50;;;;;;;2.23;1.10;;;18.90;75.10;;;;;;5037997;28;20265;-77
2023/04/19 11:52:23;;;;;;;2.87;1.33;;;18.90;74.50;;;;;;5030939;28;20199;-76
2023/04/19 11:54:52;;;;;;;3.10;1.37;;;18.90;74.70;;;;;;5028869;28;20638;-77
2023/04/19 11:57:30;;;;;;;5.60;2.10;;;18.90;74.20;;;;;;5031149;28;20618;-76
2023/04/19 12:00:10;;;;;;;9.50;2.00;;;19.00;74.60;;;;;;5029314;28;20203;-76
2023/04/19 12:02:40;;;;;;;1.90;1.20;;;19.00;74.70;;;;;;5024459;28;20306;-76
2023/04/19 12:05:10;;;;;;;2.50;1.40;;;19.10;74.70;;;;;;5033116;28;20195;-76
2023/04/19 12:08:00;;;;;;;6.07;1.87;;;19.20;74.80;;;;;;5033452;28;20198;-76
2023/04/19 12:10:29;;;;;;;1.87;1.33;;;19.40;74.60;;;;;;5027257;28;20198;-78
2023/04/19 12:12:58;;;;;;;2.23;1.00;;;19.40;74.10;;;;;;5028119;28;20580;-75
2023/04/19 12:18:21;;;;;;;2.73;1.50;;;19.50;73.90;;;;;;5086885;27;20624;-74
2023/04/19 12:20:52;;;;;;;4.20;1.03;;;19.50;72.90;;;;;;5067826;28;20222;-75
2023/04/19 12:23:21;;;;;;;2.53;1.67;;;19.60;73.20;;;;;;5063074;28;20572;-74
2023/04/19 12:25:49;;;;;;;1.63;1.20;;;19.60;73.20;;;;;;5062890;28;20248;-76
2023/04/19 12:28:18;;;;;;;6.67;1.57;;;19.50;72.50;;;;;;5058371;28;20194;-75
2023/04/19 12:30:46;;;;;;;2.47;0.97;;;19.50;72.10;;;;;;5063911;28;20209;-75
2023/04/19 12:33:15;;;;;;;2.47;1.30;;;19.50;72.50;;;;;;5065306;28;20186;-74
2023/04/19 12:35:44;;;;;;;9.00;1.70;;;19.40;72.50;;;;;;5073823;28;20264;-74
2023/04/19 12:38:13;;;;;;;2.17;1.27;;;19.40;72.60;;;;;;5066514;28;20217;-75
2023/04/19 12:40:42;;;;;;;2.20;0.93;;;19.30;72.20;;;;;;5066696;28;20729;-74
2023/04/19 12:43:10;;;;;;;2.50;1.60;;;19.40;72.60;;;;;;5064695;28;20195;-75
2023/04/19 12:45:38;;;;;;;1.20;1.00;;;19.40;72.60;;;;;;5067587;28;20195;-75
2023/04/19 12:48:07;;;;;;;1.93;1.10;;;19.40;72.60;;;;;;5061694;28;20187;-75
2023/04/19 12:50:36;;;;;;;1.00;0.90;;;19.40;72.70;;;;;;5053018;28;20226;-75
2023/04/19 12:53:06;;;;;;;2.90;1.47;;;19.30;72.70;;;;;;5058001;28;20203;-74
2023/04/19 12:55:34;;;;;;;2.97;1.50;;;19.30;72.40;;;;;;5056422;28;20203;-73
2023/04/19 12:58:02;;;;;;;2.77;1.30;;;19.30;72.30;;;;;;5063363;28;20223;-74
2023/04/19 13:00:31;;;;;;;1.87;1.03;;;19.20;71.80;;;;;;5064204;28;20199;-75
2023/04/19 13:02:59;;;;;;;3.10;1.70;;;19.20;72.30;;;;;;5066186;28;20202;-75
2023/04/19 13:05:28;;;;;;;4.63;2.27;;;19.30;72.70;;;;;;5061649;28;20194;-75